sensor_id;sensor_type;location;lat;lon;timestamp;temperature;humidity
6672;DHT22;3372;48.690;12.362;2023-04-01T00:00:16;10.30;62.20
6672;DHT22;3372;48.690;12.362;2023-04-01T00:02:42;10.30;61.70
6672;DHT22;3372;48.690;12.362;2023-04-01T00:05:08;10.40;61.70
6672;DHT22;3372;48.690;12.362;2023-04-01T00:07:36;10.40;61.40
6672;DHT22;3372;48.690;12.362;2023-04-01T00:10:06;10.30;61.70
6672;DHT22;3372;48.690;12.362;2023-04-01T00:12:32;10.30;62.00
6672;DHT22;3372;48.690;12.362;2023-04-01T00:14:58;10.30;60.90
6672;DHT22;3372;48.690;12.362;2023-04-01T00:17:24;10.30;60.40
6672;DHT22;3372;48.690;12.362;2023-04-01T00:19:49;10.30;60.60
6672;DHT22;3372;48.690;12.362;2023-04-01T00:22:15;10.30;60.40
6672;DHT22;3372;48.690;12.362;2023-04-01T00:24:40;10.30;60.60
6672;DHT22;3372;48.690;12.362;2023-04-01T00:27:06;10.30;60.40
6672;DHT22;3372;48.690;12.362;2023-04-01T00:29:34;10.30;61.50
6672;DHT22;3372;48.690;12.362;2023-04-01T00:32:00;10.30;60.40
6672;DHT22;3372;48.690;12.362;2023-04-01T00:34:26;10.10;61.40
6672;DHT22;3372;48.690;12.362;2023-04-01T00:36:52;10.10;60.50
6672;DHT22;3372;48.690;12.362;2023-04-01T00:39:18;10.20;60.90
6672;DHT22;3372;48.690;12.362;2023-04-01T00:41:44;10.20;60.40
6672;DHT22;3372;48.690;12.362;2023-04-01T00:44:33;10.10;60.20
6672;DHT22;3372;48.690;12.362;2023-04-01T00:47:00;10.20;61.00
6672;DHT22;3372;48.690;12.362;2023-04-01T00:49:32;10.20;61.00
6672;DHT22;3372;48.690;12.362;2023-04-01T00:52:00;10.20;60.70
6672;DHT22;3372;48.690;12.362;2023-04-01T00:54:27;10.20;60.50
6672;DHT22;3372;48.690;12.362;2023-04-01T00:57:32;10.30;60.60
6672;DHT22;3372;48.690;12.362;2023-04-01T00:59:59;10.30;60.90
6672;DHT22;3372;48.690;12.362;2023-04-01T01:02:25;10.30;60.40
6672;DHT22;3372;48.690;12.362;2023-04-01T01:04:51;10.30;59.90
6672;DHT22;3372;48.690;12.362;2023-04-01T01:07:40;10.20;59.50
6672;DHT22;3372;48.690;12.362;2023-04-01T01:13:30;10.20;60.20
6672;DHT22;3372;48.690;12.362;2023-04-01T01:16:14;10.20;59.50
6672;DHT22;3372;48.690;12.362;2023-04-01T01:21:46;10.10;60.20
6672;DHT22;3372;48.690;12.362;2023-04-01T01:24:34;10.20;59.90
6672;DHT22;3372;48.690;12.362;2023-04-01T01:27:16;10.10;60.00
6672;DHT22;3372;48.690;12.362;2023-04-01T01:29:58;10.00;60.10
6672;DHT22;3372;48.690;12.362;2023-04-01T01:32:36;10.00;60.10
6672;DHT22;3372;48.690;12.362;2023-04-01T01:38:11;10.10;60.50
6672;DHT22;3372;48.690;12.362;2023-04-01T01:40:41;10.10;60.50
6672;DHT22;3372;48.690;12.362;2023-04-01T01:43:11;10.20;60.70
6672;DHT22;3372;48.690;12.362;2023-04-01T01:45:43;10.20;60.50
6672;DHT22;3372;48.690;12.362;2023-04-01T01:48:11;10.10;60.80
6672;DHT22;3372;48.690;12.362;2023-04-01T01:50:38;10.10;60.60
6672;DHT22;3372;48.690;12.362;2023-04-01T01:53:10;10.10;61.00
6672;DHT22;3372;48.690;12.362;2023-04-01T01:55:39;10.10;60.40
6672;DHT22;3372;48.690;12.362;2023-04-01T01:58:20;9.90;62.30
6672;DHT22;3372;48.690;12.362;2023-04-01T02:00:51;9.90;63.10
6672;DHT22;3372;48.690;12.362;2023-04-01T02:03:20;10.00;62.10
6672;DHT22;3372;48.690;12.362;2023-04-01T02:05:47;10.00;62.10
6672;DHT22;3372;48.690;12.362;2023-04-01T02:08:17;10.00;61.80
6672;DHT22;3372;48.690;12.362;2023-04-01T02:10:51;10.10;61.70
6672;DHT22;3372;48.690;12.362;2023-04-01T02:13:27;10.10;61.20
6672;DHT22;3372;48.690;12.362;2023-04-01T02:15:58;10.10;61.50
6672;DHT22;3372;48.690;12.362;2023-04-01T02:18:25;10.10;61.50
6672;DHT22;3372;48.690;12.362;2023-04-01T02:20:53;9.90;63.50
6672;DHT22;3372;48.690;12.362;2023-04-01T02:23:19;10.00;61.70
6672;DHT22;3372;48.690;12.362;2023-04-01T02:25:45;10.00;61.70
6672;DHT22;3372;48.690;12.362;2023-04-01T02:28:13;9.90;62.50
6672;DHT22;3372;48.690;12.362;2023-04-01T02:30:43;10.00;62.00
6672;DHT22;3372;48.690;12.362;2023-04-01T02:33:09;10.00;61.40
6672;DHT22;3372;48.690;12.362;2023-04-01T02:35:36;10.00;62.10
6672;DHT22;3372;48.690;12.362;2023-04-01T02:38:03;10.00;61.70
6672;DHT22;3372;48.690;12.362;2023-04-01T02:40:29;10.00;61.60
6672;DHT22;3372;48.690;12.362;2023-04-01T02:42:55;9.90;62.50
6672;DHT22;3372;48.690;12.362;2023-04-01T02:45:20;9.90;63.00
6672;DHT22;3372;48.690;12.362;2023-04-01T02:47:46;9.90;63.00
6672;DHT22;3372;48.690;12.362;2023-04-01T02:50:12;9.90;62.90
6672;DHT22;3372;48.690;12.362;2023-04-01T02:52:37;9.80;63.10
6672;DHT22;3372;48.690;12.362;2023-04-01T02:55:04;9.80;62.50
6672;DHT22;3372;48.690;12.362;2023-04-01T02:57:30;9.80;63.00
6672;DHT22;3372;48.690;12.362;2023-04-01T02:59:55;9.80;63.10
6672;DHT22;3372;48.690;12.362;2023-04-01T03:02:21;9.80;63.10
6672;DHT22;3372;48.690;12.362;2023-04-01T03:04:46;9.90;63.10
6672;DHT22;3372;48.690;12.362;2023-04-01T03:07:12;9.90;62.80
6672;DHT22;3372;48.690;12.362;2023-04-01T03:09:38;9.90;63.40
6672;DHT22;3372;48.690;12.362;2023-04-01T03:12:04;9.80;62.80
6672;DHT22;3372;48.690;12.362;2023-04-01T03:14:30;9.80;63.40
6672;DHT22;3372;48.690;12.362;2023-04-01T03:16:56;9.70;63.10
6672;DHT22;3372;48.690;12.362;2023-04-01T03:19:21;9.80;63.10
6672;DHT22;3372;48.690;12.362;2023-04-01T03:21:47;9.80;63.50
6672;DHT22;3372;48.690;12.362;2023-04-01T03:24:12;9.80;63.10
6672;DHT22;3372;48.690;12.362;2023-04-01T03:26:38;9.70;63.10
6672;DHT22;3372;48.690;12.362;2023-04-01T03:29:03;9.70;63.30
6672;DHT22;3372;48.690;12.362;2023-04-01T03:31:30;9.80;62.50
6672;DHT22;3372;48.690;12.362;2023-04-01T03:33:56;9.80;62.10
6672;DHT22;3372;48.690;12.362;2023-04-01T03:36:21;9.70;62.40
6672;DHT22;3372;48.690;12.362;2023-04-01T03:38:47;9.70;62.60
6672;DHT22;3372;48.690;12.362;2023-04-01T03:41:14;9.80;62.50
6672;DHT22;3372;48.690;12.362;2023-04-01T03:43:40;9.70;63.10
6672;DHT22;3372;48.690;12.362;2023-04-01T03:46:06;9.70;63.10
6672;DHT22;3372;48.690;12.362;2023-04-01T03:48:31;9.70;63.00
6672;DHT22;3372;48.690;12.362;2023-04-01T03:50:57;9.80;62.70
6672;DHT22;3372;48.690;12.362;2023-04-01T03:53:22;9.90;62.20
6672;DHT22;3372;48.690;12.362;2023-04-01T03:55:48;9.90;61.90
6672;DHT22;3372;48.690;12.362;2023-04-01T03:58:14;9.90;62.20
6672;DHT22;3372;48.690;12.362;2023-04-01T04:00:39;9.90;62.20
6672;DHT22;3372;48.690;12.362;2023-04-01T04:03:06;9.90;62.20
6672;DHT22;3372;48.690;12.362;2023-04-01T04:05:32;10.00;60.90
6672;DHT22;3372;48.690;12.362;2023-04-01T04:07:57;9.90;62.40
6672;DHT22;3372;48.690;12.362;2023-04-01T04:10:23;9.90;62.00
6672;DHT22;3372;48.690;12.362;2023-04-01T04:12:50;9.90;62.20
6672;DHT22;3372;48.690;12.362;2023-04-01T04:15:16;9.90;61.20
6672;DHT22;3372;48.690;12.362;2023-04-01T04:17:41;9.80;62.10
6672;DHT22;3372;48.690;12.362;2023-04-01T04:20:08;9.80;62.20
6672;DHT22;3372;48.690;12.362;2023-04-01T04:22:34;9.80;62.40
6672;DHT22;3372;48.690;12.362;2023-04-01T04:25:00;9.80;62.50
6672;DHT22;3372;48.690;12.362;2023-04-01T04:27:25;9.80;62.20
6672;DHT22;3372;48.690;12.362;2023-04-01T04:29:51;9.80;62.30
6672;DHT22;3372;48.690;12.362;2023-04-01T04:32:16;9.90;62.30
6672;DHT22;3372;48.690;12.362;2023-04-01T04:34:42;9.90;62.20
6672;DHT22;3372;48.690;12.362;2023-04-01T04:37:07;9.90;61.40
6672;DHT22;3372;48.690;12.362;2023-04-01T04:39:33;9.90;62.50
6672;DHT22;3372;48.690;12.362;2023-04-01T04:41:58;9.90;61.90
6672;DHT22;3372;48.690;12.362;2023-04-01T04:44:24;9.90;61.40
6672;DHT22;3372;48.690;12.362;2023-04-01T04:46:50;9.90;61.60
6672;DHT22;3372;48.690;12.362;2023-04-01T04:49:15;9.80;62.60
6672;DHT22;3372;48.690;12.362;2023-04-01T04:51:41;9.70;62.00
6672;DHT22;3372;48.690;12.362;2023-04-01T04:54:07;9.80;62.00
6672;DHT22;3372;48.690;12.362;2023-04-01T04:56:32;9.70;63.20
6672;DHT22;3372;48.690;12.362;2023-04-01T04:58:58;9.70;62.60
6672;DHT22;3372;48.690;12.362;2023-04-01T05:01:24;9.70;62.20
6672;DHT22;3372;48.690;12.362;2023-04-01T05:03:50;9.80;62.40
6672;DHT22;3372;48.690;12.362;2023-04-01T05:06:17;9.70;62.20
6672;DHT22;3372;48.690;12.362;2023-04-01T05:08:44;9.70;61.50
6672;DHT22;3372;48.690;12.362;2023-04-01T05:11:13;9.80;61.70
6672;DHT22;3372;48.690;12.362;2023-04-01T05:13:40;9.80;61.00
6672;DHT22;3372;48.690;12.362;2023-04-01T05:16:10;9.70;60.90
6672;DHT22;3372;48.690;12.362;2023-04-01T05:18:35;9.70;60.90
6672;DHT22;3372;48.690;12.362;2023-04-01T05:21:01;9.70;60.70
6672;DHT22;3372;48.690;12.362;2023-04-01T05:23:27;9.70;60.80
6672;DHT22;3372;48.690;12.362;2023-04-01T05:25:52;9.60;60.80
6672;DHT22;3372;48.690;12.362;2023-04-01T05:28:19;9.60;60.80
6672;DHT22;3372;48.690;12.362;2023-04-01T05:30:45;9.60;61.00
6672;DHT22;3372;48.690;12.362;2023-04-01T05:33:12;9.70;60.90
6672;DHT22;3372;48.690;12.362;2023-04-01T05:35:38;9.60;60.80
6672;DHT22;3372;48.690;12.362;2023-04-01T05:38:04;9.60;60.80
6672;DHT22;3372;48.690;12.362;2023-04-01T05:40:30;9.60;60.60
6672;DHT22;3372;48.690;12.362;2023-04-01T05:42:56;9.50;60.30
6672;DHT22;3372;48.690;12.362;2023-04-01T05:45:22;9.60;60.80
6672;DHT22;3372;48.690;12.362;2023-04-01T05:47:47;9.70;60.40
6672;DHT22;3372;48.690;12.362;2023-04-01T05:50:13;9.70;60.70
6672;DHT22;3372;48.690;12.362;2023-04-01T05:52:39;9.70;60.90
6672;DHT22;3372;48.690;12.362;2023-04-01T05:55:05;9.70;60.80
6672;DHT22;3372;48.690;12.362;2023-04-01T05:57:31;9.70;60.40
6672;DHT22;3372;48.690;12.362;2023-04-01T05:59:57;9.80;60.80
6672;DHT22;3372;48.690;12.362;2023-04-01T06:02:23;9.80;60.20
6672;DHT22;3372;48.690;12.362;2023-04-01T06:04:49;9.90;61.00
6672;DHT22;3372;48.690;12.362;2023-04-01T06:07:18;9.80;59.70
6672;DHT22;3372;48.690;12.362;2023-04-01T06:09:44;9.80;60.00
6672;DHT22;3372;48.690;12.362;2023-04-01T06:12:29;9.70;60.90
6672;DHT22;3372;48.690;12.362;2023-04-01T06:15:18;9.90;60.70
6672;DHT22;3372;48.690;12.362;2023-04-01T06:29:02;10.20;58.80
6672;DHT22;3372;48.690;12.362;2023-04-01T06:31:51;10.10;58.60
6672;DHT22;3372;48.690;12.362;2023-04-01T06:34:39;10.20;59.00
6672;DHT22;3372;48.690;12.362;2023-04-01T06:54:58;11.10;53.70
6672;DHT22;3372;48.690;12.362;2023-04-01T06:57:31;10.80;52.80
6672;DHT22;3372;48.690;12.362;2023-04-01T07:00:00;10.90;53.10
6672;DHT22;3372;48.690;12.362;2023-04-01T07:02:39;10.80;51.90
6672;DHT22;3372;48.690;12.362;2023-04-01T07:05:07;10.80;54.50
6672;DHT22;3372;48.690;12.362;2023-04-01T07:07:39;10.80;51.60
6672;DHT22;3372;48.690;12.362;2023-04-01T07:10:15;11.00;52.70
6672;DHT22;3372;48.690;12.362;2023-04-01T07:12:53;11.40;51.50
6672;DHT22;3372;48.690;12.362;2023-04-01T07:15:21;11.40;49.80
6672;DHT22;3372;48.690;12.362;2023-04-01T07:17:58;11.40;50.60
6672;DHT22;3372;48.690;12.362;2023-04-01T07:20:31;11.30;49.20
6672;DHT22;3372;48.690;12.362;2023-04-01T07:23:03;11.50;51.60
6672;DHT22;3372;48.690;12.362;2023-04-01T07:25:35;11.50;48.80
6672;DHT22;3372;48.690;12.362;2023-04-01T07:28:12;11.60;47.00
6672;DHT22;3372;48.690;12.362;2023-04-01T07:31:04;11.60;48.80
6672;DHT22;3372;48.690;12.362;2023-04-01T07:44:24;11.80;45.50
6672;DHT22;3372;48.690;12.362;2023-04-01T07:47:05;11.90;46.20
6672;DHT22;3372;48.690;12.362;2023-04-01T07:49:58;11.90;45.50
6672;DHT22;3372;48.690;12.362;2023-04-01T07:55:14;12.00;44.60
6672;DHT22;3372;48.690;12.362;2023-04-01T07:58:08;12.00;42.80
6672;DHT22;3372;48.690;12.362;2023-04-01T08:00:44;11.80;45.50
6672;DHT22;3372;48.690;12.362;2023-04-01T08:03:33;12.00;47.20
6672;DHT22;3372;48.690;12.362;2023-04-01T08:06:09;12.50;45.90
6672;DHT22;3372;48.690;12.362;2023-04-01T08:08:45;12.20;42.10
6672;DHT22;3372;48.690;12.362;2023-04-01T08:11:26;13.00;44.00
6672;DHT22;3372;48.690;12.362;2023-04-01T08:17:07;13.50;39.50
6672;DHT22;3372;48.690;12.362;2023-04-01T08:22:32;13.90;35.70
6672;DHT22;3372;48.690;12.362;2023-04-01T08:25:05;14.10;31.70
6672;DHT22;3372;48.690;12.362;2023-04-01T08:27:48;14.50;34.60
6672;DHT22;3372;48.690;12.362;2023-04-01T08:30:23;14.50;30.30
6672;DHT22;3372;48.690;12.362;2023-04-01T08:32:54;14.50;32.80
6672;DHT22;3372;48.690;12.362;2023-04-01T08:35:34;14.30;34.60
6672;DHT22;3372;48.690;12.362;2023-04-01T08:38:10;14.20;31.40
6672;DHT22;3372;48.690;12.362;2023-04-01T08:49:13;14.30;32.20
6672;DHT22;3372;48.690;12.362;2023-04-01T08:51:55;14.20;29.00
6672;DHT22;3372;48.690;12.362;2023-04-01T08:54:55;14.00;29.40
6672;DHT22;3372;48.690;12.362;2023-04-01T09:02:58;13.90;26.30
6672;DHT22;3372;48.690;12.362;2023-04-01T09:10:53;13.40;28.50
6672;DHT22;3372;48.690;12.362;2023-04-01T09:16:28;13.20;29.00
6672;DHT22;3372;48.690;12.362;2023-04-01T09:21:45;12.90;28.70
6672;DHT22;3372;48.690;12.362;2023-04-01T09:27:32;13.20;27.80
6672;DHT22;3372;48.690;12.362;2023-04-01T09:30:19;13.20;29.10
6672;DHT22;3372;48.690;12.362;2023-04-01T09:38:55;13.10;27.90
6672;DHT22;3372;48.690;12.362;2023-04-01T09:50:30;13.30;28.60
6672;DHT22;3372;48.690;12.362;2023-04-01T10:07:22;14.20;26.50
6672;DHT22;3372;48.690;12.362;2023-04-01T10:19:18;14.20;27.50
6672;DHT22;3372;48.690;12.362;2023-04-01T10:22:00;14.20;26.80
6672;DHT22;3372;48.690;12.362;2023-04-01T10:55:04;14.30;27.50
6672;DHT22;3372;48.690;12.362;2023-04-01T11:06:37;13.70;31.20
6672;DHT22;3372;48.690;12.362;2023-04-01T11:26:00;13.70;34.00
6672;DHT22;3372;48.690;12.362;2023-04-01T11:28:53;13.70;34.00
6672;DHT22;3372;48.690;12.362;2023-04-01T11:31:37;13.60;34.70
6672;DHT22;3372;48.690;12.362;2023-04-01T11:40:27;13.80;30.40
6672;DHT22;3372;48.690;12.362;2023-04-01T11:43:10;13.80;29.90
6672;DHT22;3372;48.690;12.362;2023-04-01T11:45:43;14.00;30.30
6672;DHT22;3372;48.690;12.362;2023-04-01T11:53:47;14.10;29.60
6672;DHT22;3372;48.690;12.362;2023-04-01T12:01:54;13.70;30.50
6672;DHT22;3372;48.690;12.362;2023-04-01T12:07:25;13.70;32.90
6672;DHT22;3372;48.690;12.362;2023-04-01T12:12:39;13.30;37.00
6672;DHT22;3372;48.690;12.362;2023-04-01T12:15:38;13.20;37.30
6672;DHT22;3372;48.690;12.362;2023-04-01T12:21:29;13.30;38.90
6672;DHT22;3372;48.690;12.362;2023-04-01T12:43:56;13.00;43.40
6672;DHT22;3372;48.690;12.362;2023-04-01T12:46:31;13.10;44.30
6672;DHT22;3372;48.690;12.362;2023-04-01T12:49:10;13.00;43.90
6672;DHT22;3372;48.690;12.362;2023-04-01T12:51:49;12.90;45.90
6672;DHT22;3372;48.690;12.362;2023-04-01T13:16:51;12.40;46.50
6672;DHT22;3372;48.690;12.362;2023-04-01T13:19:34;12.50;50.10
6672;DHT22;3372;48.690;12.362;2023-04-01T13:27:34;12.40;48.80
6672;DHT22;3372;48.690;12.362;2023-04-01T13:30:26;12.10;51.90
6672;DHT22;3372;48.690;12.362;2023-04-01T13:33:15;12.20;52.50
6672;DHT22;3372;48.690;12.362;2023-04-01T13:43:36;12.20;52.20
6672;DHT22;3372;48.690;12.362;2023-04-01T13:46:23;12.20;52.00
6672;DHT22;3372;48.690;12.362;2023-04-01T13:52:25;12.10;52.30
6672;DHT22;3372;48.690;12.362;2023-04-01T13:54:53;11.90;52.70
6672;DHT22;3372;48.690;12.362;2023-04-01T14:00:46;11.70;56.30
6672;DHT22;3372;48.690;12.362;2023-04-01T14:03:52;11.90;56.60
6672;DHT22;3372;48.690;12.362;2023-04-01T14:28:39;11.70;63.50
6672;DHT22;3372;48.690;12.362;2023-04-01T14:31:36;11.80;63.70
6672;DHT22;3372;48.690;12.362;2023-04-01T14:50:15;12.00;64.10
6672;DHT22;3372;48.690;12.362;2023-04-01T14:55:48;12.20;62.60
6672;DHT22;3372;48.690;12.362;2023-04-01T14:58:17;11.90;62.40
6672;DHT22;3372;48.690;12.362;2023-04-01T15:03:31;12.00;62.40
6672;DHT22;3372;48.690;12.362;2023-04-01T15:06:28;12.00;63.50
6672;DHT22;3372;48.690;12.362;2023-04-01T15:09:44;11.90;62.10
6672;DHT22;3372;48.690;12.362;2023-04-01T15:28:53;12.10;62.10
6672;DHT22;3372;48.690;12.362;2023-04-01T15:31:33;12.20;62.20
6672;DHT22;3372;48.690;12.362;2023-04-01T15:37:09;12.10;60.60
6672;DHT22;3372;48.690;12.362;2023-04-01T15:42:59;12.10;58.90
6672;DHT22;3372;48.690;12.362;2023-04-01T15:48:30;11.90;60.10
6672;DHT22;3372;48.690;12.362;2023-04-01T15:51:54;11.90;58.40
6672;DHT22;3372;48.690;12.362;2023-04-01T15:54:19;11.90;59.30
6672;DHT22;3372;48.690;12.362;2023-04-01T15:57:00;11.90;60.40
6672;DHT22;3372;48.690;12.362;2023-04-01T15:59:54;11.90;59.70
6672;DHT22;3372;48.690;12.362;2023-04-01T16:05:29;11.90;60.70
6672;DHT22;3372;48.690;12.362;2023-04-01T16:21:48;12.00;60.80
6672;DHT22;3372;48.690;12.362;2023-04-01T16:24:33;11.90;60.40
6672;DHT22;3372;48.690;12.362;2023-04-01T16:27:17;11.90;61.90
6672;DHT22;3372;48.690;12.362;2023-04-01T16:29:56;11.70;60.60
6672;DHT22;3372;48.690;12.362;2023-04-01T16:38:22;11.90;61.40
6672;DHT22;3372;48.690;12.362;2023-04-01T16:41:07;11.80;61.40
6672;DHT22;3372;48.690;12.362;2023-04-01T16:46:14;11.70;61.70
6672;DHT22;3372;48.690;12.362;2023-04-01T16:49:04;11.60;62.30
6672;DHT22;3372;48.690;12.362;2023-04-01T16:51:55;11.70;62.20
6672;DHT22;3372;48.690;12.362;2023-04-01T16:59:38;11.60;60.70
6672;DHT22;3372;48.690;12.362;2023-04-01T17:02:13;11.60;61.20
6672;DHT22;3372;48.690;12.362;2023-04-01T17:17:55;11.50;59.90
6672;DHT22;3372;48.690;12.362;2023-04-01T17:33:54;11.40;58.10
6672;DHT22;3372;48.690;12.362;2023-04-01T17:39:35;11.40;59.40
6672;DHT22;3372;48.690;12.362;2023-04-01T17:42:10;11.40;59.80
6672;DHT22;3372;48.690;12.362;2023-04-01T17:44:55;11.50;60.70
6672;DHT22;3372;48.690;12.362;2023-04-01T17:50:20;11.40;59.20
6672;DHT22;3372;48.690;12.362;2023-04-01T18:01:02;11.50;58.30
6672;DHT22;3372;48.690;12.362;2023-04-01T18:04:04;11.50;57.70
6672;DHT22;3372;48.690;12.362;2023-04-01T18:09:52;11.50;58.00
6672;DHT22;3372;48.690;12.362;2023-04-01T18:12:58;11.50;58.00
6672;DHT22;3372;48.690;12.362;2023-04-01T18:15:48;11.50;59.60
6672;DHT22;3372;48.690;12.362;2023-04-01T18:18:36;11.50;59.00
6672;DHT22;3372;48.690;12.362;2023-04-01T18:21:17;11.40;58.70
6672;DHT22;3372;48.690;12.362;2023-04-01T18:24:22;11.40;59.40
6672;DHT22;3372;48.690;12.362;2023-04-01T18:27:11;11.30;59.60
6672;DHT22;3372;48.690;12.362;2023-04-01T18:30:07;11.30;60.40
6672;DHT22;3372;48.690;12.362;2023-04-01T18:32:56;11.30;60.10
6672;DHT22;3372;48.690;12.362;2023-04-01T18:35:47;11.30;60.00
6672;DHT22;3372;48.690;12.362;2023-04-01T18:38:16;11.40;60.50
6672;DHT22;3372;48.690;12.362;2023-04-01T18:41:13;11.40;60.50
6672;DHT22;3372;48.690;12.362;2023-04-01T18:46:50;11.40;60.30
6672;DHT22;3372;48.690;12.362;2023-04-01T18:49:25;11.40;60.20
6672;DHT22;3372;48.690;12.362;2023-04-01T18:52:07;11.40;60.50
6672;DHT22;3372;48.690;12.362;2023-04-01T18:57:51;11.40;60.40
6672;DHT22;3372;48.690;12.362;2023-04-01T19:00:40;11.20;61.30
6672;DHT22;3372;48.690;12.362;2023-04-01T19:03:39;11.30;61.40
6672;DHT22;3372;48.690;12.362;2023-04-01T19:06:17;11.30;61.40
6672;DHT22;3372;48.690;12.362;2023-04-01T19:08:45;11.20;61.50
6672;DHT22;3372;48.690;12.362;2023-04-01T19:11:39;11.10;61.20
6672;DHT22;3372;48.690;12.362;2023-04-01T19:14:56;11.20;61.60
6672;DHT22;3372;48.690;12.362;2023-04-01T19:17:38;11.20;61.30
6672;DHT22;3372;48.690;12.362;2023-04-01T19:22:54;11.10;62.60
6672;DHT22;3372;48.690;12.362;2023-04-01T19:25:45;11.10;61.60
6672;DHT22;3372;48.690;12.362;2023-04-01T19:28:27;11.10;62.40
6672;DHT22;3372;48.690;12.362;2023-04-01T19:30:59;11.00;64.30
6672;DHT22;3372;48.690;12.362;2023-04-01T19:33:38;10.90;62.60
6672;DHT22;3372;48.690;12.362;2023-04-01T19:38:40;10.90;63.40
6672;DHT22;3372;48.690;12.362;2023-04-01T19:41:58;10.90;64.00
6672;DHT22;3372;48.690;12.362;2023-04-01T19:49:53;11.00;63.70
6672;DHT22;3372;48.690;12.362;2023-04-01T19:52:40;11.00;62.70
6672;DHT22;3372;48.690;12.362;2023-04-01T19:55:24;11.00;62.60
6672;DHT22;3372;48.690;12.362;2023-04-01T20:00:47;11.10;62.50
6672;DHT22;3372;48.690;12.362;2023-04-01T20:12:05;11.10;61.50
6672;DHT22;3372;48.690;12.362;2023-04-01T20:14:53;11.10;61.70
6672;DHT22;3372;48.690;12.362;2023-04-01T20:17:41;11.00;61.80
6672;DHT22;3372;48.690;12.362;2023-04-01T20:39:17;11.00;61.20
6672;DHT22;3372;48.690;12.362;2023-04-01T20:50:25;11.10;59.60
6672;DHT22;3372;48.690;12.362;2023-04-01T20:52:57;11.00;59.70
6672;DHT22;3372;48.690;12.362;2023-04-01T20:55:30;11.00;59.80
6672;DHT22;3372;48.690;12.362;2023-04-01T21:04:00;11.00;60.30
6672;DHT22;3372;48.690;12.362;2023-04-01T21:06:48;11.10;60.80
6672;DHT22;3372;48.690;12.362;2023-04-01T21:23:13;11.00;61.80
6672;DHT22;3372;48.690;12.362;2023-04-01T21:25:53;10.90;62.10
6672;DHT22;3372;48.690;12.362;2023-04-01T21:31:33;10.70;63.90
6672;DHT22;3372;48.690;12.362;2023-04-01T21:51:19;10.70;64.20
6672;DHT22;3372;48.690;12.362;2023-04-01T22:10:47;10.80;62.30
6672;DHT22;3372;48.690;12.362;2023-04-01T22:13:42;10.80;62.90
6672;DHT22;3372;48.690;12.362;2023-04-01T22:16:40;10.80;61.50
6672;DHT22;3372;48.690;12.362;2023-04-01T22:19:04;10.80;61.20
6672;DHT22;3372;48.690;12.362;2023-04-01T22:21:40;10.60;61.70
6672;DHT22;3372;48.690;12.362;2023-04-01T22:24:23;10.60;61.90
6672;DHT22;3372;48.690;12.362;2023-04-01T22:29:42;10.60;61.50
6672;DHT22;3372;48.690;12.362;2023-04-01T22:32:14;10.60;60.90
6672;DHT22;3372;48.690;12.362;2023-04-01T22:34:57;10.60;61.50
6672;DHT22;3372;48.690;12.362;2023-04-01T22:37:47;10.60;61.20
6672;DHT22;3372;48.690;12.362;2023-04-01T22:43:03;10.50;60.70
6672;DHT22;3372;48.690;12.362;2023-04-01T22:53:52;10.40;60.50
6672;DHT22;3372;48.690;12.362;2023-04-01T22:56:36;10.50;60.10
6672;DHT22;3372;48.690;12.362;2023-04-01T23:01:46;10.50;59.70
6672;DHT22;3372;48.690;12.362;2023-04-01T23:04:16;10.30;60.10
6672;DHT22;3372;48.690;12.362;2023-04-01T23:06:51;10.40;59.70
6672;DHT22;3372;48.690;12.362;2023-04-01T23:11:48;10.50;59.50
6672;DHT22;3372;48.690;12.362;2023-04-01T23:20:01;10.60;59.30
6672;DHT22;3372;48.690;12.362;2023-04-01T23:22:49;10.60;58.70
6672;DHT22;3372;48.690;12.362;2023-04-01T23:25:36;10.50;58.60
6672;DHT22;3372;48.690;12.362;2023-04-01T23:36:00;10.50;59.30
6672;DHT22;3372;48.690;12.362;2023-04-01T23:38:35;10.50;58.10
6672;DHT22;3372;48.690;12.362;2023-04-01T23:41:02;10.50;58.30
6672;DHT22;3372;48.690;12.362;2023-04-01T23:43:30;10.50;58.90
6672;DHT22;3372;48.690;12.362;2023-04-01T23:45:57;10.50;58.50
6672;DHT22;3372;48.690;12.362;2023-04-01T23:48:39;10.60;58.90
6672;DHT22;3372;48.690;12.362;2023-04-01T23:51:38;10.40;58.80
6672;DHT22;3372;48.690;12.362;2023-04-01T23:54:18;10.50;58.90
6672;DHT22;3372;48.690;12.362;2023-04-01T23:56:47;10.50;58.00
6672;DHT22;3372;48.690;12.362;2023-04-01T23:59:19;10.50;58.80
